createdAt,value
2019-05-05T00:02:45.007Z,88.32
2019-05-05T00:05:19.206Z,88.32
2019-05-05T00:07:48.640Z,88.45
2019-05-05T00:10:28.720Z,88.51
2019-05-05T00:13:00.035Z,88.61
2019-05-05T00:15:47.240Z,88.80
2019-05-05T00:18:18.256Z,88.94
2019-05-05T00:20:47.617Z,89.06
2019-05-05T00:23:17.004Z,89.17
2019-05-05T00:25:46.693Z,89.23
2019-05-05T00:28:16.078Z,89.24
2019-05-05T00:30:45.614Z,89.19
2019-05-05T00:33:18.519Z,89.13
2019-05-05T00:35:48.134Z,89.12
2019-05-05T00:38:18.721Z,89.07
2019-05-05T00:40:48.174Z,88.97
2019-05-05T00:43:17.604Z,88.93
2019-05-05T00:45:48.619Z,88.91
2019-05-05T00:48:19.614Z,88.86
2019-05-05T00:50:51.716Z,88.79
2019-05-05T00:53:20.251Z,88.73
2019-05-05T00:55:51.318Z,88.58
2019-05-05T00:58:20.939Z,88.46
2019-05-05T01:00:55.196Z,88.38
2019-05-05T01:03:26.222Z,88.41
2019-05-05T01:05:57.316Z,88.51
2019-05-05T01:08:28.971Z,88.52
2019-05-05T01:10:58.711Z,88.68
2019-05-05T01:13:28.075Z,88.88
2019-05-05T01:15:57.733Z,89.02
2019-05-05T01:18:27.109Z,88.97
2019-05-05T01:20:56.700Z,89.02
2019-05-05T01:23:27.039Z,89.05
2019-05-05T01:25:56.698Z,88.87
2019-05-05T01:28:27.110Z,88.82
2019-05-05T01:30:58.526Z,88.88
2019-05-05T01:33:34.389Z,88.89
2019-05-05T01:36:04.672Z,88.88
2019-05-05T01:38:36.015Z,88.87
2019-05-05T01:41:16.058Z,88.80
2019-05-05T01:43:45.714Z,88.68
2019-05-05T01:46:16.060Z,88.32
2019-05-05T01:48:45.752Z,88.30
2019-05-05T01:51:15.128Z,88.17
2019-05-05T01:53:44.770Z,88.11
2019-05-05T01:56:15.374Z,87.99
2019-05-05T01:58:45.197Z,87.91
2019-05-05T02:01:15.328Z,87.77
2019-05-05T02:03:45.343Z,87.67
2019-05-05T02:06:14.763Z,87.54
2019-05-05T02:08:45.435Z,87.44
2019-05-05T02:11:15.650Z,87.37
2019-05-05T02:13:45.173Z,87.31
2019-05-05T02:16:15.105Z,87.26
2019-05-05T02:18:45.159Z,87.19
2019-05-05T02:21:15.826Z,87.14
2019-05-05T02:23:45.392Z,87.09
2019-05-05T02:26:15.423Z,86.98
2019-05-05T02:29:05.886Z,87.04
2019-05-05T02:31:55.118Z,87.12
2019-05-05T02:34:25.663Z,87.07
2019-05-05T02:36:56.479Z,87.04
2019-05-05T02:39:27.182Z,86.90
2019-05-05T02:41:57.395Z,86.83
2019-05-05T02:44:27.489Z,86.77
2019-05-05T02:47:17.782Z,86.71
2019-05-05T02:49:47.145Z,86.61
2019-05-05T02:52:18.170Z,86.40
2019-05-05T02:54:49.115Z,86.23
2019-05-05T02:57:19.440Z,86.19
2019-05-05T02:59:51.091Z,86.20
2019-05-05T03:02:25.208Z,86.25
2019-05-05T03:04:54.861Z,86.26
2019-05-05T03:07:26.138Z,86.23
2019-05-05T03:09:56.122Z,86.27
2019-05-05T03:12:25.658Z,86.33
2019-05-05T03:14:56.486Z,86.24
2019-05-05T03:17:27.334Z,86.23
2019-05-05T03:19:56.995Z,86.30
2019-05-05T03:22:27.603Z,86.52
2019-05-05T03:24:56.964Z,86.65
2019-05-05T03:27:27.282Z,86.75
2019-05-05T03:29:57.179Z,86.91
2019-05-05T03:32:27.325Z,87.00
2019-05-05T03:34:57.096Z,87.03
2019-05-05T03:37:27.333Z,87.08
2019-05-05T03:39:58.554Z,87.09
2019-05-05T03:42:30.820Z,87.11
2019-05-05T03:45:04.039Z,87.10
2019-05-05T03:47:33.804Z,87.12
2019-05-05T03:50:05.448Z,87.19
2019-05-05T03:52:36.352Z,87.21
2019-05-05T03:55:08.700Z,87.10
2019-05-05T03:57:38.846Z,87.09
2019-05-05T04:00:08.474Z,87.14
2019-05-05T04:02:48.510Z,87.31
2019-05-05T04:05:19.740Z,87.64
2019-05-05T04:07:49.122Z,88.22
2019-05-05T04:10:18.468Z,88.63
2019-05-05T04:12:48.516Z,88.82
2019-05-05T04:15:19.021Z,89.20
2019-05-05T04:17:50.031Z,89.53
2019-05-05T04:20:21.085Z,89.83
2019-05-05T04:22:50.472Z,90.16
2019-05-05T04:25:20.103Z,90.71
2019-05-05T04:27:49.480Z,91.15
2019-05-05T04:30:19.045Z,91.55
2019-05-05T04:32:48.678Z,91.78
2019-05-05T04:35:18.205Z,92.14
2019-05-05T04:37:47.571Z,92.24
2019-05-05T04:40:17.204Z,92.34
2019-05-05T04:42:46.574Z,92.36
2019-05-05T04:45:16.209Z,92.28
2019-05-05T04:47:59.031Z,92.16
2019-05-05T04:50:34.511Z,92.30
2019-05-05T04:53:08.426Z,92.45
2019-05-05T04:55:38.132Z,92.55
2019-05-05T04:58:07.515Z,92.51
2019-05-05T05:00:37.124Z,92.55
2019-05-05T05:03:09.207Z,92.52
2019-05-05T05:05:55.846Z,92.43
2019-05-05T05:08:25.478Z,92.36
2019-05-05T05:10:55.145Z,92.20
2019-05-05T05:13:24.706Z,92.14
2019-05-05T05:15:54.166Z,92.15
2019-05-05T05:18:24.202Z,92.15
2019-05-05T05:20:54.816Z,92.01
2019-05-05T05:23:24.788Z,91.74
2019-05-05T05:25:54.643Z,91.79
2019-05-05T05:28:24.225Z,91.86
2019-05-05T05:30:54.612Z,91.79
2019-05-05T05:33:25.183Z,91.26
2019-05-05T05:35:54.791Z,90.75
2019-05-05T05:38:24.763Z,90.51
2019-05-05T05:40:58.795Z,90.51
2019-05-05T05:43:30.094Z,90.60
2019-05-05T05:46:04.436Z,90.61
2019-05-05T05:48:35.792Z,89.89
2019-05-05T05:51:06.832Z,89.60
2019-05-05T05:53:36.860Z,89.65
2019-05-05T05:56:06.287Z,88.74
2019-05-05T05:58:35.917Z,88.01
2019-05-05T06:01:06.313Z,87.27
2019-05-05T06:03:35.963Z,86.85
2019-05-05T06:06:06.954Z,86.78
2019-05-05T06:08:36.615Z,86.62
2019-05-05T06:11:08.590Z,86.50
2019-05-05T06:13:38.511Z,86.20
2019-05-05T06:16:08.143Z,86.11
2019-05-05T06:18:37.525Z,84.64
2019-05-05T06:21:07.198Z,84.90
2019-05-05T06:23:36.852Z,84.66
2019-05-05T06:26:07.217Z,84.99
2019-05-05T06:28:36.845Z,85.57
2019-05-05T06:31:06.276Z,85.48
2019-05-05T06:33:35.658Z,85.16
2019-05-05T06:36:05.358Z,85.04
2019-05-05T06:38:35.032Z,85.15
2019-05-05T06:41:06.056Z,84.76
2019-05-05T06:43:37.195Z,84.45
2019-05-05T06:46:11.129Z,84.30
2019-05-05T06:48:40.836Z,84.25
2019-05-05T06:51:10.331Z,84.88
2019-05-05T06:53:39.685Z,84.58
2019-05-05T06:56:09.360Z,83.79
2019-05-05T06:58:38.863Z,83.79
2019-05-05T07:01:08.391Z,84.26
2019-05-05T07:03:37.761Z,84.26
2019-05-05T07:06:07.627Z,83.73
2019-05-05T07:08:37.615Z,83.73
2019-05-05T07:11:07.319Z,82.63
2019-05-05T07:13:36.912Z,81.85
2019-05-05T07:16:06.389Z,81.73
2019-05-05T07:18:35.761Z,81.73
2019-05-05T07:21:05.457Z,81.41
2019-05-05T07:23:34.990Z,81.41
2019-05-05T07:26:05.961Z,82.18
2019-05-05T07:28:35.664Z,82.18
2019-05-05T07:31:05.400Z,81.96
2019-05-05T07:33:34.860Z,81.69
2019-05-05T07:36:22.103Z,80.49
2019-05-05T07:38:51.456Z,80.49
2019-05-05T07:41:20.841Z,80.81
2019-05-05T07:43:50.520Z,80.96
2019-05-05T07:46:19.886Z,80.96
2019-05-05T07:48:49.442Z,81.85
2019-05-05T07:51:19.071Z,81.85
2019-05-05T07:53:48.428Z,80.32
2019-05-05T07:56:17.879Z,80.13
2019-05-05T07:58:47.843Z,79.17
2019-05-05T08:01:17.509Z,78.89
2019-05-05T08:03:46.868Z,78.89
2019-05-05T08:06:16.720Z,78.92
2019-05-05T08:08:46.083Z,78.92
2019-05-05T08:11:15.628Z,78.25
2019-05-05T08:13:45.245Z,78.25
2019-05-05T08:16:24.257Z,77.23
2019-05-05T08:18:55.258Z,77.24
2019-05-05T08:21:24.635Z,77.08
2019-05-05T08:23:58.519Z,77.41
2019-05-05T08:26:33.687Z,76.18
2019-05-05T08:29:05.663Z,76.19
2019-05-05T08:31:48.551Z,76.20
2019-05-05T08:34:17.924Z,75.72
2019-05-05T08:36:47.567Z,76.48
2019-05-05T08:39:16.945Z,76.48
2019-05-05T08:41:47.448Z,76.48
2019-05-05T08:44:18.134Z,76.28
2019-05-05T08:46:47.725Z,76.68
2019-05-05T08:49:17.083Z,76.68
2019-05-05T08:51:46.588Z,77.23
2019-05-05T08:54:15.948Z,77.65
2019-05-05T08:56:45.836Z,78.11
2019-05-05T08:59:15.200Z,76.40
2019-05-05T09:01:45.047Z,76.71
2019-05-05T09:04:14.625Z,75.45
2019-05-05T09:06:44.260Z,75.83
2019-05-05T09:09:14.464Z,74.72
2019-05-05T09:11:44.175Z,74.74
2019-05-05T09:14:14.905Z,73.50
2019-05-05T09:16:44.938Z,73.50
2019-05-05T09:19:23.968Z,72.64
2019-05-05T09:21:54.143Z,70.99
2019-05-05T09:24:38.509Z,68.69
2019-05-05T09:27:28.345Z,69.03
2019-05-05T09:29:57.835Z,65.54
2019-05-05T09:32:28.347Z,66.09
2019-05-05T09:34:57.792Z,64.60
2019-05-05T09:37:28.581Z,62.64
2019-05-05T09:39:57.970Z,59.26
2019-05-05T09:42:28.021Z,60.73
2019-05-05T09:44:57.654Z,60.59
2019-05-05T09:47:27.969Z,61.11
2019-05-05T09:49:57.632Z,63.12
2019-05-05T09:52:28.133Z,64.61
2019-05-05T09:54:57.733Z,65.57
2019-05-05T09:57:28.032Z,65.60
2019-05-05T09:59:59.602Z,68.32
2019-05-05T10:02:29.264Z,71.61
2019-05-05T10:04:58.787Z,75.54
2019-05-05T10:07:28.182Z,75.54
2019-05-05T10:09:57.751Z,76.82
2019-05-05T10:12:28.050Z,77.92
2019-05-05T10:14:57.709Z,78.52
2019-05-05T10:17:28.601Z,78.29
2019-05-05T10:19:58.446Z,78.40
2019-05-05T10:22:28.198Z,77.86
2019-05-05T10:25:15.615Z,77.55
2019-05-05T10:27:47.688Z,76.96
2019-05-05T10:30:16.061Z,76.48
2019-05-05T10:32:47.028Z,75.77
2019-05-05T10:35:16.391Z,74.65
2019-05-05T10:37:46.062Z,75.23
2019-05-05T10:40:17.370Z,75.43
2019-05-05T10:42:49.553Z,75.08
2019-05-05T10:45:20.157Z,75.17
2019-05-05T10:47:50.577Z,75.14
2019-05-05T10:50:20.225Z,74.05
2019-05-05T10:52:50.877Z,74.00
2019-05-05T10:55:20.314Z,73.88
2019-05-05T10:57:49.760Z,75.26
2019-05-05T11:00:39.705Z,75.12
2019-05-05T11:03:09.106Z,69.30
2019-05-05T11:05:38.831Z,64.53
2019-05-05T11:08:08.283Z,64.94
2019-05-05T11:10:38.153Z,65.68
2019-05-05T11:13:09.184Z,62.77
2019-05-05T11:15:38.868Z,63.29
2019-05-05T11:18:08.507Z,63.60
2019-05-05T11:20:37.893Z,64.09
2019-05-05T11:23:07.349Z,62.74
2019-05-05T11:25:37.002Z,63.08
2019-05-05T11:28:09.149Z,64.25
2019-05-05T11:30:40.842Z,65.18
2019-05-05T11:33:11.846Z,65.09
2019-05-05T11:35:44.408Z,64.73
2019-05-05T11:38:14.230Z,64.95
2019-05-05T11:40:44.088Z,65.16
2019-05-05T11:43:14.288Z,65.42
2019-05-05T11:45:44.100Z,65.96
2019-05-05T11:48:14.823Z,64.81
2019-05-05T11:50:44.368Z,65.21
2019-05-05T11:53:14.582Z,63.47
2019-05-05T11:55:44.487Z,60.28
2019-05-05T11:58:14.567Z,57.99
2019-05-05T12:00:44.059Z,57.99
2019-05-05T12:03:14.592Z,59.25
2019-05-05T12:05:45.193Z,58.52
2019-05-05T12:08:14.917Z,58.52
2019-05-05T12:10:45.968Z,59.12
2019-05-05T12:13:15.327Z,59.68
2019-05-05T12:15:46.644Z,61.55
2019-05-05T12:18:16.060Z,61.55
2019-05-05T12:20:46.431Z,61.68
2019-05-05T12:23:15.960Z,59.95
2019-05-05T12:25:50.115Z,60.10
2019-05-05T12:28:30.462Z,58.25
2019-05-05T12:31:04.985Z,56.63
2019-05-05T12:33:34.387Z,56.36
2019-05-05T12:36:04.524Z,57.10
2019-05-05T12:38:34.847Z,57.32
2019-05-05T12:41:04.494Z,57.00
2019-05-05T12:43:35.140Z,57.04
2019-05-05T12:46:13.761Z,57.24
2019-05-05T12:48:44.920Z,59.68
2019-05-05T12:51:14.771Z,60.29
2019-05-05T12:53:44.389Z,61.61
2019-05-05T12:56:14.641Z,62.74
2019-05-05T12:58:44.299Z,63.54
2019-05-05T13:01:21.153Z,64.69
2019-05-05T13:03:50.516Z,65.09
2019-05-05T13:06:20.078Z,65.13
2019-05-05T13:08:49.457Z,66.27
2019-05-05T13:11:20.222Z,67.13
2019-05-05T13:13:49.885Z,67.80
2019-05-05T13:16:22.236Z,68.16
2019-05-05T13:18:50.638Z,68.05
2019-05-05T13:21:38.141Z,68.59
2019-05-05T13:24:27.969Z,68.88
2019-05-05T13:26:58.983Z,68.88
2019-05-05T13:29:28.589Z,68.50
2019-05-05T13:31:58.136Z,68.66
2019-05-05T13:34:28.479Z,68.04
2019-05-05T13:36:58.108Z,66.56
2019-05-05T13:39:28.437Z,66.78
2019-05-05T13:41:57.817Z,66.78
2019-05-05T13:44:45.087Z,66.52
2019-05-05T13:47:17.671Z,64.43
2019-05-05T13:49:47.119Z,62.91
2019-05-05T13:52:16.748Z,61.41
2019-05-05T13:54:46.421Z,62.42
2019-05-05T13:57:16.107Z,60.53
2019-05-05T13:59:45.757Z,55.94
2019-05-05T14:02:15.626Z,56.65
2019-05-05T14:04:45.581Z,54.60
2019-05-05T14:07:15.271Z,54.11
2019-05-05T14:09:44.977Z,53.63
2019-05-05T14:12:14.739Z,52.44
2019-05-05T14:14:44.641Z,51.47
2019-05-05T14:17:14.798Z,52.42
2019-05-05T14:19:44.677Z,50.89
2019-05-05T14:22:14.224Z,52.54
2019-05-05T14:25:01.494Z,54.05
2019-05-05T14:27:31.183Z,55.15
2019-05-05T14:30:04.027Z,56.09
2019-05-05T14:32:35.132Z,54.78
2019-05-05T14:35:10.664Z,54.70
2019-05-05T14:37:44.702Z,54.00
2019-05-05T14:40:14.930Z,54.00
2019-05-05T14:42:44.526Z,54.34
2019-05-05T14:45:15.337Z,53.69
2019-05-05T14:47:46.401Z,54.46
2019-05-05T14:50:15.865Z,55.03
2019-05-05T14:52:45.307Z,55.69
2019-05-05T14:55:16.003Z,54.97
2019-05-05T14:57:46.031Z,55.08
2019-05-05T15:00:17.274Z,55.59
2019-05-05T15:02:46.817Z,55.62
2019-05-05T15:09:06.715Z,55.84
2019-05-05T15:11:45.689Z,56.74
2019-05-05T15:14:15.072Z,54.07
2019-05-05T15:16:44.728Z,55.11
2019-05-05T15:19:14.584Z,55.50
2019-05-05T15:21:44.894Z,56.24
2019-05-05T15:24:14.582Z,56.01
2019-05-05T15:26:51.786Z,55.68
2019-05-05T15:29:15.025Z,54.09
2019-05-05T15:31:44.716Z,53.32
2019-05-05T15:34:14.429Z,51.33
2019-05-05T15:36:44.137Z,52.01
2019-05-05T15:39:13.924Z,49.88
2019-05-05T15:41:44.604Z,50.33
2019-05-05T15:44:14.045Z,51.55
2019-05-05T15:46:44.194Z,49.55
2019-05-05T15:49:13.717Z,49.55
2019-05-05T15:51:44.292Z,48.93
2019-05-05T15:54:14.137Z,50.54
2019-05-05T15:56:43.787Z,50.91
2019-05-05T15:59:14.353Z,51.84
2019-05-05T16:01:43.932Z,52.10
2019-05-05T16:04:14.102Z,50.77
2019-05-05T16:06:45.160Z,50.77
2019-05-05T16:09:14.867Z,51.92
2019-05-05T16:11:46.746Z,52.02
2019-05-05T16:14:15.591Z,52.06
2019-05-05T16:17:03.883Z,52.06
2019-05-05T16:19:46.550Z,52.39
2019-05-05T16:22:25.394Z,52.53
2019-05-05T16:25:14.229Z,52.90
2019-05-05T16:27:44.585Z,52.28
2019-05-05T16:30:15.857Z,51.90
2019-05-05T16:32:45.451Z,51.59
2019-05-05T16:35:14.977Z,51.29
2019-05-05T16:37:44.649Z,52.58
2019-05-05T16:40:15.308Z,52.58
2019-05-05T16:42:44.958Z,53.69
2019-05-05T16:45:16.491Z,53.69
2019-05-05T16:47:47.190Z,54.27
2019-05-05T16:50:16.876Z,54.24
2019-05-05T16:52:47.896Z,54.22
2019-05-05T16:55:18.926Z,54.17
2019-05-05T16:57:48.286Z,53.22
2019-05-05T17:00:18.313Z,53.68
2019-05-05T17:02:47.889Z,53.80
2019-05-05T17:05:17.352Z,53.16
2019-05-05T17:07:47.008Z,52.56
2019-05-05T17:10:17.023Z,52.56
2019-05-05T17:12:46.437Z,52.86
2019-05-05T17:15:35.364Z,53.55
2019-05-05T17:18:32.878Z,54.68
2019-05-05T17:21:13.452Z,55.26
2019-05-05T17:23:43.542Z,55.50
2019-05-05T17:26:14.364Z,54.73
2019-05-05T17:28:44.451Z,55.59
2019-05-05T17:31:13.880Z,55.71
2019-05-05T17:33:44.751Z,55.48
2019-05-05T17:36:14.150Z,56.01
2019-05-05T17:38:43.872Z,56.47
2019-05-05T17:41:17.814Z,56.30
2019-05-05T17:43:48.888Z,56.56
2019-05-05T17:46:19.910Z,55.88
2019-05-05T17:48:50.922Z,56.92
2019-05-05T17:51:39.738Z,57.17
2019-05-05T17:54:28.327Z,56.58
2019-05-05T17:56:57.954Z,56.23
2019-05-05T17:59:27.588Z,56.43
2019-05-05T18:01:56.971Z,56.42
2019-05-05T18:04:26.333Z,56.41
2019-05-05T18:07:04.505Z,57.02
2019-05-05T18:09:53.795Z,57.01
2019-05-05T18:12:25.950Z,57.44
2019-05-05T18:14:56.956Z,57.73
2019-05-05T18:17:26.351Z,57.96
2019-05-05T18:19:55.959Z,58.26
2019-05-05T18:22:25.339Z,58.86
2019-05-05T18:24:54.904Z,58.95
2019-05-05T18:27:24.289Z,59.43
2019-05-05T18:29:54.551Z,59.39
2019-05-05T18:32:24.021Z,60.06
2019-05-05T18:34:54.514Z,63.37
2019-05-05T18:37:25.029Z,61.03
2019-05-05T18:39:54.724Z,59.82
2019-05-05T18:42:24.954Z,59.73
2019-05-05T18:44:57.187Z,59.83
2019-05-05T18:47:26.844Z,60.39
2019-05-05T18:49:56.218Z,61.17
2019-05-05T18:52:25.881Z,61.63
2019-05-05T18:54:55.253Z,61.88
2019-05-05T18:57:26.165Z,61.85
2019-05-05T18:59:55.796Z,61.88
2019-05-05T19:02:41.717Z,61.98
2019-05-05T19:05:23.746Z,62.29
2019-05-05T19:08:04.599Z,63.00
2019-05-05T19:10:35.490Z,63.59
2019-05-05T19:13:05.388Z,64.31
2019-05-05T19:15:35.286Z,64.56
2019-05-05T19:18:06.602Z,64.82
2019-05-05T19:20:40.582Z,65.00
2019-05-05T19:23:10.040Z,65.27
2019-05-05T19:25:39.418Z,65.14
2019-05-05T19:28:09.058Z,65.61
2019-05-05T19:30:38.771Z,65.63
2019-05-05T19:33:08.191Z,65.58
2019-05-05T19:35:43.995Z,65.62
2019-05-05T19:38:08.986Z,65.81
2019-05-05T19:40:38.810Z,65.50
2019-05-05T19:43:08.205Z,65.42
2019-05-05T19:45:37.569Z,65.66
2019-05-05T19:48:07.186Z,66.01
2019-05-05T19:50:41.098Z,66.44
2019-05-05T19:53:24.544Z,66.50
2019-05-05T19:55:54.811Z,66.46
2019-05-05T19:58:24.227Z,66.61
2019-05-05T20:00:55.241Z,66.77
2019-05-05T20:03:24.892Z,66.93
2019-05-05T20:05:54.332Z,66.92
2019-05-05T20:08:24.146Z,67.10
2019-05-05T20:10:54.299Z,67.45
2019-05-05T20:13:23.991Z,67.60
2019-05-05T20:16:04.523Z,67.69
2019-05-05T20:18:34.383Z,67.92
2019-05-05T20:21:07.205Z,67.98
2019-05-05T20:23:36.036Z,68.42
2019-05-05T20:26:05.416Z,68.70
2019-05-05T20:28:35.076Z,68.99
2019-05-05T20:31:04.440Z,69.10
2019-05-05T20:33:44.564Z,69.66
2019-05-05T20:36:18.747Z,69.94
2019-05-05T20:38:49.984Z,69.94
2019-05-05T20:41:20.966Z,69.76
2019-05-05T20:43:50.586Z,69.55
2019-05-05T20:46:20.423Z,69.54
2019-05-05T20:48:50.087Z,69.54
2019-05-05T20:51:19.450Z,69.95
2019-05-05T20:53:49.441Z,70.44
2019-05-05T20:56:19.103Z,70.38
2019-05-05T20:58:48.475Z,70.51
2019-05-05T21:01:18.190Z,71.05
2019-05-05T21:03:47.810Z,71.05
2019-05-05T21:06:17.293Z,71.21
2019-05-05T21:08:46.943Z,71.17
2019-05-05T21:11:16.299Z,71.20
2019-05-05T21:13:45.959Z,71.41
2019-05-05T21:16:15.315Z,71.55
2019-05-05T21:18:44.986Z,71.73
2019-05-05T21:21:16.049Z,72.09
2019-05-05T21:23:47.203Z,72.38
2019-05-05T21:26:21.167Z,72.54
2019-05-05T21:28:50.560Z,72.46
2019-05-05T21:31:20.483Z,72.68
2019-05-05T21:33:50.428Z,72.68
2019-05-05T21:36:20.761Z,72.87
2019-05-05T21:38:50.417Z,72.99
2019-05-05T21:41:19.769Z,73.02
2019-05-05T21:43:49.591Z,73.28
2019-05-05T21:46:19.261Z,73.44
2019-05-05T21:48:49.673Z,73.61
2019-05-05T21:51:24.017Z,73.66
2019-05-05T21:53:57.724Z,73.97
2019-05-05T21:56:36.996Z,74.37
2019-05-05T21:59:06.628Z,74.51
2019-05-05T22:01:39.477Z,74.51
2019-05-05T22:04:07.449Z,74.62
2019-05-05T22:06:37.106Z,74.76
2019-05-05T22:09:07.623Z,74.96
2019-05-05T22:11:38.859Z,75.16
2019-05-05T22:14:08.384Z,75.41
2019-05-05T22:16:37.740Z,75.59
2019-05-05T22:19:08.030Z,75.82
2019-05-05T22:21:39.233Z,75.90
2019-05-05T22:24:16.128Z,75.96
2019-05-05T22:26:45.969Z,76.00
2019-05-05T22:29:17.047Z,76.06
2019-05-05T22:31:46.608Z,76.10
2019-05-05T22:34:16.046Z,76.42
2019-05-05T22:36:45.746Z,76.42
2019-05-05T22:39:16.987Z,76.58
2019-05-05T22:41:46.659Z,76.98
2019-05-05T22:44:16.322Z,77.22
2019-05-05T22:46:46.144Z,77.31
2019-05-05T22:49:15.536Z,77.36
2019-05-05T22:51:44.978Z,77.32
2019-05-05T22:54:15.624Z,77.56
2019-05-05T22:56:45.272Z,77.56
2019-05-05T22:59:14.643Z,77.55
2019-05-05T23:01:44.327Z,77.68
2019-05-05T23:04:34.977Z,77.80
2019-05-05T23:07:11.796Z,77.79
2019-05-05T23:09:44.366Z,77.86
2019-05-05T23:12:14.757Z,78.07
2019-05-05T23:14:44.425Z,78.55
2019-05-05T23:17:18.331Z,78.95
2019-05-05T23:19:55.248Z,79.33
2019-05-05T23:22:44.241Z,79.50
2019-05-05T23:25:18.048Z,79.60
2019-05-05T23:27:48.194Z,79.68
2019-05-05T23:30:18.893Z,80.04
2019-05-05T23:32:48.540Z,80.32
2019-05-05T23:35:18.089Z,80.38
2019-05-05T23:37:49.556Z,80.90
2019-05-05T23:40:24.577Z,81.19
2019-05-05T23:42:54.612Z,81.31
2019-05-05T23:45:24.779Z,81.34
2019-05-05T23:47:55.815Z,81.39
2019-05-05T23:50:25.481Z,81.63
2019-05-05T23:52:54.934Z,81.75
2019-05-05T23:55:24.555Z,81.90
2019-05-05T23:57:55.053Z,82.17
